createdAt,value
2023-04-10T00:00:22.080Z,7.000000
2023-04-10T00:05:24.735Z,7.000000
2023-04-10T00:10:26.912Z,7.000000
2023-04-10T00:15:29.063Z,7.000000
2023-04-10T00:20:31.208Z,7.000000
2023-04-10T00:25:33.170Z,7.000000
2023-04-10T00:30:35.287Z,7.533333
2023-04-10T00:35:17.725Z,9.000000
2023-04-10T00:40:19.996Z,8.200000
2023-04-10T00:45:21.923Z,6.000000
2023-04-10T00:50:24.066Z,6.214286
2023-04-10T00:55:26.902Z,7.000000
2023-04-10T01:00:29.313Z,7.000000
2023-04-10T01:05:31.256Z,7.000000
2023-04-10T01:10:33.206Z,7.533333
2023-04-10T01:15:35.217Z,9.000000
2023-04-10T01:20:17.213Z,8.200000
2023-04-10T01:25:19.443Z,6.000000
2023-04-10T01:30:21.741Z,6.266667
2023-04-10T01:35:24.227Z,7.000000
2023-04-10T01:40:26.347Z,7.000000
2023-04-10T01:45:28.248Z,7.000000
2023-04-10T01:50:30.400Z,6.733333
2023-04-10T01:55:32.320Z,6.000000
2023-04-10T02:00:34.721Z,6.266667
2023-04-10T02:05:16.719Z,7.000000
2023-04-10T02:10:19.212Z,7.000000
2023-04-10T02:15:21.202Z,7.000000
2023-04-10T02:20:23.617Z,7.000000
2023-04-10T02:25:25.887Z,7.000000
2023-04-10T02:30:27.923Z,7.266667
2023-04-10T02:35:30.032Z,8.000000
2023-04-10T02:40:32.096Z,6.933333
2023-04-10T02:45:34.365Z,4.000000
2023-04-10T02:50:16.178Z,5.066667
2023-04-10T02:55:18.586Z,8.000000
2023-04-10T03:00:20.748Z,8.000000
2023-04-10T03:05:22.687Z,8.000000
2023-04-10T03:10:25.009Z,7.600000
2023-04-10T03:15:27.291Z,6.000000
2023-04-10T03:20:29.379Z,6.266667
2023-04-10T03:25:31.437Z,7.000000
2023-04-10T03:30:33.469Z,7.000000
2023-04-10T03:35:35.464Z,7.000000
2023-04-10T03:40:17.660Z,7.533333
2023-04-10T03:45:20.047Z,9.000000
2023-04-10T03:50:21.954Z,8.466667
2023-04-10T03:55:24.089Z,7.000000
2023-04-10T04:00:26.990Z,7.000000
2023-04-10T04:05:28.912Z,7.000000
2023-04-10T04:10:31.475Z,7.000000
2023-04-10T04:15:33.598Z,7.000000
2023-04-10T04:20:35.565Z,7.000000
2023-04-10T04:25:17.576Z,7.000000
2023-04-10T04:30:19.814Z,7.533333
2023-04-10T04:35:21.787Z,9.000000
2023-04-10T04:40:23.828Z,9.000000
2023-04-10T04:45:26.208Z,9.000000
2023-04-10T04:50:28.499Z,8.733333
2023-04-10T04:55:30.469Z,8.000000
2023-04-10T05:00:32.411Z,8.000000
2023-04-10T05:05:34.632Z,8.000000
2023-04-10T05:10:16.767Z,8.000000
2023-04-10T05:15:19.057Z,8.000000
2023-04-10T05:20:21.867Z,8.000000
2023-04-10T05:25:23.889Z,8.000000
2023-04-10T05:30:25.990Z,7.600000
2023-04-10T05:35:28.534Z,6.000000
2023-04-10T05:40:30.540Z,7.066667
2023-04-10T05:45:32.724Z,10.000000
2023-04-10T05:50:34.749Z,10.000000
2023-04-10T05:55:16.640Z,10.000000
2023-04-10T06:00:18.701Z,10.000000
2023-04-10T06:05:21.243Z,10.000000
2023-04-10T06:10:23.380Z,9.571429
2023-04-10T06:15:25.288Z,8.000000
2023-04-10T06:20:27.446Z,8.533333
2023-04-10T06:25:29.563Z,10.000000
2023-04-10T06:30:31.746Z,10.533333
2023-04-10T06:35:34.082Z,12.000000
2023-04-10T06:40:15.912Z,13.333333
2023-04-10T06:45:18.034Z,17.000000
2023-04-10T06:50:20.303Z,17.266667
2023-04-10T06:55:22.400Z,18.000000
2023-04-10T07:00:24.481Z,18.600000
2023-04-10T07:05:27.312Z,21.000000
2023-04-10T07:10:29.300Z,21.800000
2023-04-10T07:15:31.615Z,24.000000
2023-04-10T07:20:33.655Z,24.800000
2023-04-10T07:25:36.005Z,27.000000
2023-04-10T07:30:17.725Z,26.733333
2023-04-10T07:35:20.018Z,26.000000
2023-04-10T07:40:22.191Z,26.214286
2023-04-10T07:45:24.477Z,27.000000
2023-04-10T07:50:26.633Z,27.200000
2023-04-10T07:55:28.885Z,28.000000
2023-04-10T08:00:30.832Z,28.000000
2023-04-10T08:05:33.036Z,28.000000
2023-04-10T08:10:35.874Z,27.200000
2023-04-10T08:15:17.384Z,25.000000
2023-04-10T08:20:19.433Z,27.133333
2023-04-10T08:25:21.521Z,33.000000
2023-04-10T08:30:23.820Z,31.928571
2023-04-10T08:35:25.866Z,28.000000
2023-04-10T08:40:27.883Z,30.666667
2023-04-10T08:45:30.098Z,38.000000
2023-04-10T08:50:32.065Z,38.000000
2023-04-10T08:55:34.591Z,38.000000
2023-04-10T09:01:21.842Z,37.466667
2023-04-10T09:05:18.632Z,36.000000
2023-04-10T09:10:20.885Z,39.200000
2023-04-10T09:15:22.807Z,48.000000
2023-04-10T09:20:25.296Z,47.200000
2023-04-10T09:25:27.531Z,44.000000
2023-04-10T09:30:29.581Z,42.400000
2023-04-10T09:35:32.127Z,38.000000
2023-04-10T09:40:34.372Z,40.133333
2023-04-10T09:45:16.127Z,46.000000
2023-04-10T09:50:18.665Z,47.866667
2023-04-10T09:55:20.860Z,53.000000
2023-04-10T10:00:22.982Z,51.071429
2023-04-10T10:05:25.096Z,44.000000
2023-04-10T10:10:27.240Z,44.000000
2023-04-10T10:15:29.459Z,44.000000
2023-04-10T10:20:31.313Z,44.800000
2023-04-10T10:25:33.932Z,47.000000
2023-04-10T10:30:28.828Z,44.600000
2023-04-10T10:35:18.508Z,38.000000
2023-04-10T10:40:20.622Z,39.066667
2023-04-10T10:45:23.268Z,42.000000
2023-04-10T10:50:25.184Z,41.600000
2023-04-10T10:55:27.313Z,40.000000
2023-04-10T11:00:29.618Z,40.533333
2023-04-10T11:05:32.248Z,42.000000
2023-04-10T11:10:35.182Z,43.866667
2023-04-10T11:15:16.411Z,49.000000
2023-04-10T11:20:18.901Z,49.800000
2023-04-10T11:25:20.967Z,52.000000
2023-04-10T11:30:23.132Z,51.357143
2023-04-10T11:35:25.370Z,49.000000
2023-04-10T11:40:27.477Z,50.866667
2023-04-10T11:45:29.831Z,56.000000
2023-04-10T11:50:32.014Z,58.933333
2023-04-10T11:55:34.305Z,67.000000
2023-04-10T12:00:16.307Z,67.533333
2023-04-10T12:05:18.530Z,69.000000
2023-04-10T12:10:20.610Z,66.866667
2023-04-10T12:15:23.377Z,61.000000
2023-04-10T12:20:25.842Z,60.800000
2023-04-10T12:25:30.209Z,60.000000
2023-04-10T12:30:34.403Z,58.133333
2023-04-10T12:35:16.531Z,53.000000
2023-04-10T12:40:18.762Z,58.333333
2023-04-10T12:45:21.184Z,73.000000
2023-04-10T12:50:23.490Z,71.500000
2023-04-10T12:55:25.985Z,66.000000
2023-04-10T13:00:28.322Z,66.533333
2023-04-10T13:05:31.110Z,68.000000
2023-04-10T13:10:33.010Z,68.266667
2023-04-10T13:15:35.335Z,69.000000
2023-04-10T13:20:17.115Z,67.933333
2023-04-10T13:25:19.538Z,65.000000
2023-04-10T13:30:21.975Z,64.466667
2023-04-10T13:35:24.119Z,63.000000
2023-04-10T13:40:26.430Z,63.800000
2023-04-10T13:45:28.539Z,67.000000
2023-04-10T13:50:30.591Z,71.266667
2023-04-10T13:55:32.785Z,83.000000
2023-04-10T14:00:35.158Z,84.333333
2023-04-10T14:05:17.243Z,88.000000
2023-04-10T14:10:19.160Z,86.400000
2023-04-10T14:15:21.587Z,82.000000
2023-04-10T14:20:23.954Z,81.785714
2023-04-10T14:25:26.910Z,81.000000
2023-04-10T14:30:29.122Z,77.800000
2023-04-10T14:35:31.669Z,69.000000
2023-04-10T14:40:34.040Z,68.733333
2023-04-10T14:45:35.915Z,68.000000
2023-04-10T14:50:17.835Z,60.533333
2023-04-10T14:55:19.872Z,40.000000
2023-04-10T15:00:21.713Z,36.266667
2023-04-10T15:05:24.053Z,26.000000
2023-04-10T15:10:26.059Z,25.600000
2023-04-10T15:15:28.452Z,24.000000
2023-04-10T15:20:31.079Z,23.200000
2023-04-10T15:25:33.173Z,21.000000
2023-04-10T15:30:35.981Z,21.266667
2023-04-10T15:35:18.192Z,22.000000
2023-04-10T15:40:20.446Z,20.133333
2023-04-10T15:45:22.712Z,15.000000
2023-04-10T15:50:24.730Z,14.800000
2023-04-10T15:55:27.476Z,14.000000
2023-04-10T16:00:29.172Z,14.000000
2023-04-10T16:05:31.583Z,14.000000
2023-04-10T16:10:33.828Z,14.000000
2023-04-10T16:15:15.876Z,14.000000
2023-04-10T16:20:18.419Z,13.733333
2023-04-10T16:25:21.739Z,13.000000
2023-04-10T16:30:22.667Z,13.428571
2023-04-10T16:35:24.899Z,15.000000
2023-04-10T16:40:27.331Z,15.000000
2023-04-10T16:45:29.346Z,15.000000
2023-04-10T16:50:31.616Z,13.933333
2023-04-10T16:55:33.584Z,11.000000
2023-04-10T17:00:35.677Z,13.666667
2023-04-10T17:05:18.061Z,21.000000
2023-04-10T17:10:20.372Z,19.400000
2023-04-10T17:15:22.206Z,15.000000
2023-04-10T17:20:24.969Z,14.200000
2023-04-10T17:25:27.303Z,11.000000
2023-04-10T17:30:29.346Z,12.066667
2023-04-10T17:35:32.025Z,15.000000
2023-04-10T17:40:34.504Z,14.733333
2023-04-10T17:45:16.257Z,14.000000
2023-04-10T17:50:18.604Z,13.733333
2023-04-10T17:55:21.391Z,13.000000
2023-04-10T18:00:23.047Z,13.000000
2023-04-10T18:05:25.486Z,13.000000
2023-04-10T18:10:27.813Z,12.466667
2023-04-10T18:15:29.871Z,11.000000
2023-04-10T18:20:31.991Z,11.266667
2023-04-10T18:25:34.703Z,12.000000
2023-04-10T18:30:16.780Z,12.266667
2023-04-10T18:35:18.873Z,13.000000
2023-04-10T18:40:21.047Z,12.733333
2023-04-10T18:45:23.211Z,12.000000
2023-04-10T18:50:25.528Z,12.000000
2023-04-10T18:55:27.890Z,12.000000
2023-04-10T19:00:30.001Z,11.733333
2023-04-10T19:05:32.024Z,11.000000
2023-04-10T19:10:34.640Z,11.533333
2023-04-10T19:15:16.624Z,13.000000
2023-04-10T19:20:18.394Z,12.200000
2023-04-10T19:25:20.276Z,10.000000
2023-04-10T19:30:22.575Z,10.000000
2023-04-10T19:35:24.890Z,10.000000
2023-04-10T19:40:26.870Z,10.533333
2023-04-10T19:45:29.596Z,12.000000
2023-04-10T19:50:31.733Z,12.000000
2023-04-10T19:55:34.520Z,12.000000
2023-04-10T20:00:16.169Z,12.000000
2023-04-10T20:05:18.054Z,12.000000
2023-04-10T20:10:20.750Z,13.066667
2023-04-10T20:15:22.855Z,16.000000
2023-04-10T20:20:24.684Z,15.600000
2023-04-10T20:25:27.026Z,14.000000
2023-04-10T20:30:29.171Z,15.600000
2023-04-10T20:35:30.997Z,20.000000
2023-04-10T20:40:33.006Z,18.933333
2023-04-10T20:45:34.903Z,16.000000
2023-04-10T20:50:16.997Z,14.933333
2023-04-10T20:55:20.602Z,12.000000
2023-04-10T21:00:22.383Z,12.642857
2023-04-10T21:05:24.480Z,15.000000
2023-04-10T21:10:26.399Z,15.800000
2023-04-10T21:15:28.449Z,18.000000
2023-04-10T21:20:30.781Z,18.000000
2023-04-10T21:25:32.965Z,18.000000
2023-04-10T21:30:35.412Z,18.266667
2023-04-10T21:35:16.978Z,19.000000
2023-04-10T21:40:18.978Z,19.000000
2023-04-10T21:45:21.019Z,19.000000
2023-04-10T21:50:23.217Z,18.571429
2023-04-10T21:55:25.229Z,17.000000
2023-04-10T22:00:27.227Z,16.733333
2023-04-10T22:05:29.649Z,16.000000
2023-04-10T22:10:31.877Z,16.800000
2023-04-10T22:15:34.784Z,19.000000
2023-04-10T22:20:16.409Z,18.733333
2023-04-10T22:25:19.259Z,18.000000
2023-04-10T22:30:21.565Z,17.466667
2023-04-10T22:35:23.879Z,16.000000
2023-04-10T22:40:25.924Z,15.200000
2023-04-10T22:45:27.899Z,12.000000
2023-04-10T22:50:30.098Z,12.800000
2023-04-10T22:55:32.120Z,15.000000
2023-04-10T23:00:34.083Z,14.466667
2023-04-10T23:05:16.075Z,13.000000
2023-04-10T23:10:18.539Z,14.333333
2023-04-10T23:15:21.008Z,18.000000
2023-04-10T23:20:23.309Z,17.142857
2023-04-10T23:25:25.418Z,14.000000
2023-04-10T23:30:27.571Z,13.733333
2023-04-10T23:35:29.958Z,13.000000
2023-04-10T23:40:31.917Z,13.266667
2023-04-10T23:45:33.838Z,14.000000
2023-04-10T23:50:15.942Z,14.800000
2023-04-10T23:55:18.287Z,17.000000
